Disclaimer

Please do not use the information listed here in-flight or in-navigation, as they are not provided to us by the airports but are provided by volunteers, so they might be outdated.

Search


Regions


Airport information page

Radio informations:
JEDDAH TWR - 118.2 MHz
Ground (GND) - 121.6 MHz
JEDDAH CLNC - 121.8 MHz
Automatic Terminal Information Service (ATIS) - 114.9 MHz
JEDDAH APP - 119.1 MHz

Airport informations:
Latitude: 21° 40' 46.43" N
Longitude: 039° 09' 23.53" E
Elevation: 48 feet - 15 meters
Operating hours: 24 hour operations
Operating agency: Military-civil joint use airport
Timezone: UTC+3
Fuel: JP-4, Wide cut turbine fuel MIL Spec T-5624

Jet A1, without icing nhibitor.

100/130 MIL Spec, low lead, aviation gasoline (BLUE)

Runway information:
16C/34C - 10825 x 197 feet< - >3299 x 60 meters
16R/34L - 12467 x 197 feet< - >3800 x 60 meters
16L/34R - 12106 x 148 feet< - >3690 x 45 meters

Recent METARs:
OEJN 211100Z 22010KT CAVOK 34/15 Q1011 NOSIG
OEJN 211100Z 22010KT CAVOK 34/15 Q1011 NOSIG
OEJN 211200Z 23010KT CAVOK 32/16 Q1011 NOSIG

Airport on the map: